Vh-npc — VH-NPC — position and weather

sailwx.info

Track history (hours):
 
Tides and Currents Weather Stations Pressure Air Temp Water Temp Dewpoint Dewpoint Depression Visibility Wind Speed Wind Dir Waves Ship Positions

Vh-npc

Last reported at 2018-Jul-20 01:33 UTC. Time now 2018-Jul-20 10:45 UTC.
Position S 32°55' E 151°47'.

Length 10 m.

Type: Pilot. MMSI: 111503020.

Date/timePositionNaut miles runAvg speedWind from/ knotsBaromVisibWave heightAir tempDewpointWater temp
2018-Jul-20 01:33S 32°55' E 151°47'234.9
2018-Jul-20 01:31S 32°54' E 151°48'2 0.3
2018-Jul-19 20:39S 32°55' E 151°47'214.8
2018-Jul-19 20:30S 32°56' E 151°49'2 0.8
2018-Jul-19 17:32S 32°55' E 151°47'268.8
2018-Jul-19 17:30S 32°53' E 151°47'2 0.9
2018-Jul-19 15:23S 32°55' E 151°47'0 0.0
2018-Jul-19 13:03S 32°55' E 151°47'236.1
2018-Jul-19 13:01S 32°55' E 151°48'2 0.4
2018-Jul-19 08:34S 32°55' E 151°46'241.5
2018-Jul-19 08:31S 32°55' E 151°49'2 1.2
2018-Jul-19 06:34S 32°55' E 151°46'453.5
2018-Jul-19 06:30S 32°56' E 151°50'3 1.2
2018-Jul-19 03:48S 32°55' E 151°47'2 6.9
2018-Jul-19 03:31S 32°55' E 151°49'5 9.5
2018-Jul-19 03:01S 32°59' E 151°52'6 1.1
2018-Jul-18 21:16S 32°55' E 151°46'0 0.6
2018-Jul-18 21:01S 32°55' E 151°46'0 0.0
2018-Jul-18 16:02S 32°55' E 151°47'264.6
2018-Jul-18 16:01S 32°53' E 151°47'2 1.6
2018-Jul-18 14:54S 32°55' E 151°47'0 0.0
2018-Jul-18 11:05S 32°55' E 151°47'0 0.0
2018-Jul-18 07:35S 32°55' E 151°47'343.7
2018-Jul-18 07:31S 32°56' E 151°50'3 1.7
2018-Jul-18 05:42S 32°55' E 151°47'630.9
2018-Jul-18 05:31S 32°59' E 151°52'6 3.7
2018-Jul-18 03:56S 32°55' E 151°47'0 0.0
2018-Jul-18 02:35S 32°55' E 151°47'218.2
2018-Jul-18 02:28S 32°55' E 151°49'2 0.2
2018-Jul-17 15:59S 32°55' E 151°47'0 0.0
2018-Jul-17 14:27S 32°55' E 151°47'0 0.1
2018-Jul-17 13:39S 32°55' E 151°47'318.3
2018-Jul-17 13:30S 32°56' E 151°50'3 0.5
2018-Jul-17 08:38S 32°55' E 151°47'535.6
2018-Jul-17 08:29S 32°57' E 151°52'2 4.2
2018-Jul-17 08:01S 32°56' E 151°50'3 2.1
2018-Jul-17 06:35S 32°55' E 151°47'213.7
2018-Jul-17 06:25S 32°55' E 151°49'2 4.3
2018-Jul-17 05:55S 32°55' E 151°47'0 0.0
2018-Jul-17 00:25S 32°55' E 151°47'0 0.0
2018-Jul-16 21:17S 32°55' E 151°47'518.3
2018-Jul-16 21:00S 32°58' E 151°52'2 4.3
2018-Jul-16 20:31S 32°56' E 151°50'3 0.8
2018-Jul-16 16:36S 32°55' E 151°47'444.6
2018-Jul-16 16:31S 32°57' E 151°51'3 6.3
2018-Jul-16 16:01S 32°54' E 151°49'2 0.9
2018-Jul-16 14:02S 32°55' E 151°47'272.6
2018-Jul-16 14:01S 32°53' E 151°47'1 2.2
2018-Jul-16 13:26S 32°55' E 151°47'0 0.2
2018-Jul-16 11:52S 32°54' E 151°46'1 0.3
2018-Jul-16 09:15S 32°55' E 151°47'311.8
2018-Jul-16 09:01S 32°56' E 151°50'3 0.8
2018-Jul-16 05:30S 32°55' E 151°47'0 0.0
2018-Jul-16 04:56S 32°55' E 151°47'0 0.0
2018-Jul-16 04:06S 32°55' E 151°47'216.2
2018-Jul-16 03:57S 32°56' E 151°49'2 0.8
2018-Jul-16 00:59S 32°55' E 151°47'0 0.0
2018-Jul-15 20:58S 32°55' E 151°47'4 7.9
2018-Jul-15 20:31S 32°57' E 151°51'4 0.5
2018-Jul-15 12:45S 32°55' E 151°47'727.0
2018-Jul-15 12:30S 32°59' E 151°53'7 8.5
2018-Jul-15 11:44S 32°55' E 151°47'0 0.9
2018-Jul-15 11:31S 32°55' E 151°46'0 0.2
2018-Jul-15 09:21S 32°55' E 151°47'410.8
2018-Jul-15 09:01S 32°57' E 151°50'4 1.5
2018-Jul-15 06:25S 32°55' E 151°47'0 0.0
2018-Jul-15 02:23S 32°55' E 151°47'4 9.2
2018-Jul-15 02:01S 32°58' E 151°50'4 0.6
2018-Jul-14 20:29S 32°55' E 151°47'0 0.0
2018-Jul-14 13:50S 32°55' E 151°47'0 0.1
2018-Jul-14 13:10S 32°55' E 151°47'529.8
2018-Jul-14 13:00S 32°58' E 151°51'5 3.4
2018-Jul-14 11:35S 32°55' E 151°47'340.3
2018-Jul-14 11:31S 32°56' E 151°50'2 4.4
2018-Jul-14 11:00S 32°58' E 151°51'5 2.6
2018-Jul-14 09:00S 32°55' E 151°46'510.9
2018-Jul-14 08:31S 33°00' E 151°49'5 2.6
2018-Jul-14 06:23S 32°55' E 151°46'0 0.0
2018-Jul-14 00:25S 32°55' E 151°47'0 0.0
2018-Jul-13 15:29S 32°55' E 151°47'0 0.0
2018-Jul-13 11:41S 32°55' E 151°47'210.1
2018-Jul-13 11:31S 32°54' E 151°48'2 0.7
2018-Jul-13 09:10S 32°55' E 151°47'212.3
2018-Jul-13 08:59S 32°55' E 151°49'2 0.5
2018-Jul-13 04:46S 32°55' E 151°47'416.2
2018-Jul-13 04:31S 32°57' E 151°51'4 6.5
2018-Jul-13 03:50S 32°55' E 151°47'0 0.0
2018-Jul-13 02:20S 32°55' E 151°47'0 0.0
2018-Jul-13 00:02S 32°55' E 151°47'253.3
2018-Jul-13 00:01S 32°54' E 151°48'2 0.9
2018-Jul-12 22:16S 32°55' E 151°47'1 5.4
2018-Jul-12 22:01S 32°54' E 151°46'1 0.2
2018-Jul-12 16:04S 32°55' E 151°47'239.0
2018-Jul-12 16:01S 32°55' E 151°49'2 0.3
2018-Jul-12 09:45S 32°55' E 151°47'2 6.8
2018-Jul-12 09:28S 32°55' E 151°49'2 0.5
2018-Jul-12 05:11S 32°55' E 151°47'314.4
2018-Jul-12 05:01S 32°56' E 151°49'3 1.0
2018-Jul-12 02:30S 32°55' E 151°47'0 0.1
2018-Jul-12 00:29S 32°55' E 151°47'510.6
2018-Jul-12 00:00S 32°58' E 151°52'5 0.2
2018-Jul-11 02:15S 32°55' E 151°47'0 0.3
2018-Jul-11 01:57S 32°55' E 151°47'0 0.1
2018-Jul-11 01:21S 32°55' E 151°47'0 0.2
2018-Jul-11 00:54S 32°55' E 151°47'0 0.1
2018-Jul-10 23:56S 32°55' E 151°47'  
Track history (hours):
 
Tides and Currents Weather Stations Pressure Air Temp Water Temp Dewpoint Dewpoint Depression Visibility Wind Speed Wind Dir Waves Ship Positions

Vh-npc

Last reported at 2018-Jul-20 01:33 UTC. Time now 2018-Jul-20 10:45 UTC.
Position S 32°55' E 151°47'.

Length 10 m.

Type: Pilot. MMSI: 111503020.

Date/timePositionNaut miles runAvg speedWind from/ knotsBaromVisibWave heightAir tempDewpointWater temp
2018-Jul-20 01:33S 32°55' E 151°47'234.9
2018-Jul-20 01:31S 32°54' E 151°48'2 0.3
2018-Jul-19 20:39S 32°55' E 151°47'214.8
2018-Jul-19 20:30S 32°56' E 151°49'2 0.8
2018-Jul-19 17:32S 32°55' E 151°47'268.8
2018-Jul-19 17:30S 32°53' E 151°47'2 0.9
2018-Jul-19 15:23S 32°55' E 151°47'0 0.0
2018-Jul-19 13:03S 32°55' E 151°47'236.1
2018-Jul-19 13:01S 32°55' E 151°48'2 0.4
2018-Jul-19 08:34S 32°55' E 151°46'241.5
2018-Jul-19 08:31S 32°55' E 151°49'2 1.2
2018-Jul-19 06:34S 32°55' E 151°46'453.5
2018-Jul-19 06:30S 32°56' E 151°50'3 1.2
2018-Jul-19 03:48S 32°55' E 151°47'2 6.9
2018-Jul-19 03:31S 32°55' E 151°49'5 9.5
2018-Jul-19 03:01S 32°59' E 151°52'6 1.1
2018-Jul-18 21:16S 32°55' E 151°46'0 0.6
2018-Jul-18 21:01S 32°55' E 151°46'0 0.0
2018-Jul-18 16:02S 32°55' E 151°47'264.6
2018-Jul-18 16:01S 32°53' E 151°47'2 1.6
2018-Jul-18 14:54S 32°55' E 151°47'0 0.0
2018-Jul-18 11:05S 32°55' E 151°47'0 0.0
2018-Jul-18 07:35S 32°55' E 151°47'343.7
2018-Jul-18 07:31S 32°56' E 151°50'3 1.7
2018-Jul-18 05:42S 32°55' E 151°47'630.9
2018-Jul-18 05:31S 32°59' E 151°52'6 3.7
2018-Jul-18 03:56S 32°55' E 151°47'0 0.0
2018-Jul-18 02:35S 32°55' E 151°47'218.2
2018-Jul-18 02:28S 32°55' E 151°49'2 0.2
2018-Jul-17 15:59S 32°55' E 151°47'0 0.0
2018-Jul-17 14:27S 32°55' E 151°47'0 0.1
2018-Jul-17 13:39S 32°55' E 151°47'318.3
2018-Jul-17 13:30S 32°56' E 151°50'3 0.5
2018-Jul-17 08:38S 32°55' E 151°47'535.6
2018-Jul-17 08:29S 32°57' E 151°52'2 4.2
2018-Jul-17 08:01S 32°56' E 151°50'3 2.1
2018-Jul-17 06:35S 32°55' E 151°47'213.7
2018-Jul-17 06:25S 32°55' E 151°49'2 4.3
2018-Jul-17 05:55S 32°55' E 151°47'0 0.0
2018-Jul-17 00:25S 32°55' E 151°47'0 0.0
2018-Jul-16 21:17S 32°55' E 151°47'518.3
2018-Jul-16 21:00S 32°58' E 151°52'2 4.3
2018-Jul-16 20:31S 32°56' E 151°50'3 0.8
2018-Jul-16 16:36S 32°55' E 151°47'444.6
2018-Jul-16 16:31S 32°57' E 151°51'3 6.3
2018-Jul-16 16:01S 32°54' E 151°49'2 0.9
2018-Jul-16 14:02S 32°55' E 151°47'272.6
2018-Jul-16 14:01S 32°53' E 151°47'1 2.2
2018-Jul-16 13:26S 32°55' E 151°47'0 0.2
2018-Jul-16 11:52S 32°54' E 151°46'1 0.3
2018-Jul-16 09:15S 32°55' E 151°47'311.8
2018-Jul-16 09:01S 32°56' E 151°50'3 0.8
2018-Jul-16 05:30S 32°55' E 151°47'0 0.0
2018-Jul-16 04:56S 32°55' E 151°47'0 0.0
2018-Jul-16 04:06S 32°55' E 151°47'216.2
2018-Jul-16 03:57S 32°56' E 151°49'2 0.8
2018-Jul-16 00:59S 32°55' E 151°47'0 0.0
2018-Jul-15 20:58S 32°55' E 151°47'4 7.9
2018-Jul-15 20:31S 32°57' E 151°51'4 0.5
2018-Jul-15 12:45S 32°55' E 151°47'727.0
2018-Jul-15 12:30S 32°59' E 151°53'7 8.5
2018-Jul-15 11:44S 32°55' E 151°47'0 0.9
2018-Jul-15 11:31S 32°55' E 151°46'0 0.2
2018-Jul-15 09:21S 32°55' E 151°47'410.8
2018-Jul-15 09:01S 32°57' E 151°50'4 1.5
2018-Jul-15 06:25S 32°55' E 151°47'0 0.0
2018-Jul-15 02:23S 32°55' E 151°47'4 9.2
2018-Jul-15 02:01S 32°58' E 151°50'4 0.6
2018-Jul-14 20:29S 32°55' E 151°47'0 0.0
2018-Jul-14 13:50S 32°55' E 151°47'0 0.1
2018-Jul-14 13:10S 32°55' E 151°47'529.8
2018-Jul-14 13:00S 32°58' E 151°51'5 3.4
2018-Jul-14 11:35S 32°55' E 151°47'340.3
2018-Jul-14 11:31S 32°56' E 151°50'2 4.4
2018-Jul-14 11:00S 32°58' E 151°51'5 2.6
2018-Jul-14 09:00S 32°55' E 151°46'510.9
2018-Jul-14 08:31S 33°00' E 151°49'5 2.6
2018-Jul-14 06:23S 32°55' E 151°46'0 0.0
2018-Jul-14 00:25S 32°55' E 151°47'0 0.0
2018-Jul-13 15:29S 32°55' E 151°47'0 0.0
2018-Jul-13 11:41S 32°55' E 151°47'210.1
2018-Jul-13 11:31S 32°54' E 151°48'2 0.7
2018-Jul-13 09:10S 32°55' E 151°47'212.3
2018-Jul-13 08:59S 32°55' E 151°49'2 0.5
2018-Jul-13 04:46S 32°55' E 151°47'416.2
2018-Jul-13 04:31S 32°57' E 151°51'4 6.5
2018-Jul-13 03:50S 32°55' E 151°47'0 0.0
2018-Jul-13 02:20S 32°55' E 151°47'0 0.0
2018-Jul-13 00:02S 32°55' E 151°47'253.3
2018-Jul-13 00:01S 32°54' E 151°48'2 0.9
2018-Jul-12 22:16S 32°55' E 151°47'1 5.4
2018-Jul-12 22:01S 32°54' E 151°46'1 0.2
2018-Jul-12 16:04S 32°55' E 151°47'239.0
2018-Jul-12 16:01S 32°55' E 151°49'2 0.3
2018-Jul-12 09:45S 32°55' E 151°47'2 6.8
2018-Jul-12 09:28S 32°55' E 151°49'2 0.5
2018-Jul-12 05:11S 32°55' E 151°47'314.4
2018-Jul-12 05:01S 32°56' E 151°49'3 1.0
2018-Jul-12 02:30S 32°55' E 151°47'0 0.1
2018-Jul-12 00:29S 32°55' E 151°47'510.6
2018-Jul-12 00:00S 32°58' E 151°52'5 0.2
2018-Jul-11 02:15S 32°55' E 151°47'0 0.3
2018-Jul-11 01:57S 32°55' E 151°47'0 0.1
2018-Jul-11 01:21S 32°55' E 151°47'0 0.2
2018-Jul-11 00:54S 32°55' E 151°47'0 0.1
2018-Jul-10 23:56S 32°55' E 151°47'  

Dump ship's entire track history